createdAt,value
2023-05-19T00:00:34.596Z,102693.75
2023-05-19T00:03:05.061Z,102694.69
2023-05-19T00:05:34.433Z,102697.38
2023-05-19T00:08:04.197Z,102687.53
2023-05-19T00:10:33.360Z,102687.56
2023-05-19T00:13:02.093Z,102687.56
2023-05-19T00:15:30.577Z,102694.69
2023-05-19T00:17:58.950Z,102688.50
2023-05-19T00:20:31.089Z,102690.31
2023-05-19T00:23:02.011Z,102692.06
2023-05-19T00:25:29.989Z,102689.44
2023-05-19T00:27:59.242Z,102686.78
2023-05-19T00:30:27.352Z,102685.88
2023-05-19T00:32:55.484Z,102685.03
2023-05-19T00:35:26.246Z,102687.69
2023-05-19T00:37:55.622Z,102680.56
2023-05-19T00:40:25.368Z,102678.81
2023-05-19T00:42:53.396Z,102675.22
2023-05-19T00:45:21.321Z,102669.84
2023-05-19T00:47:49.666Z,102668.97
2023-05-19T00:50:18.096Z,102669.84
2023-05-19T00:52:46.127Z,102662.69
2023-05-19T00:55:15.669Z,102663.63
2023-05-19T00:57:44.605Z,102668.13
2023-05-19T01:00:14.184Z,102666.31
2023-05-19T01:02:42.348Z,102671.72
2023-05-19T01:05:14.176Z,102671.72
2023-05-19T01:07:42.596Z,102670.84
2023-05-19T01:10:11.299Z,102672.66
2023-05-19T01:12:42.278Z,102674.44
2023-05-19T01:15:11.289Z,102675.34
2023-05-19T01:17:49.456Z,102675.38
2023-05-19T01:20:23.219Z,102671.81
2023-05-19T01:23:15.034Z,102671.81
2023-05-19T01:26:16.128Z,102670.94
2023-05-19T01:29:26.922Z,102671.81
2023-05-19T01:32:00.451Z,102662.94
2023-05-19T01:34:29.202Z,102670.06
2023-05-19T01:36:59.006Z,102668.31
2023-05-19T01:39:27.534Z,102669.25
2023-05-19T01:41:56.259Z,102666.56
2023-05-19T01:44:26.956Z,102671.03
2023-05-19T01:46:59.912Z,102668.38
2023-05-19T01:49:27.864Z,102670.16
2023-05-19T01:51:55.815Z,102668.44
2023-05-19T01:54:24.208Z,102665.75
2023-05-19T01:57:04.596Z,102648.81
2023-05-19T01:59:57.482Z,102658.59
2023-05-19T02:02:32.324Z,102661.28
2023-05-19T02:05:08.094Z,102657.75
2023-05-19T02:07:45.520Z,102660.44
2023-05-19T02:10:20.578Z,102658.63
2023-05-19T02:12:54.432Z,102656.88
2023-05-19T02:15:26.019Z,102659.56
2023-05-19T02:17:56.835Z,102646.25
2023-05-19T02:20:24.959Z,102653.34
2023-05-19T02:22:53.013Z,102649.78
2023-05-19T02:25:24.270Z,102648.03
2023-05-19T02:27:52.259Z,102643.56
2023-05-19T02:30:20.223Z,102645.38
2023-05-19T02:32:48.233Z,102650.72
2023-05-19T02:35:17.935Z,102644.47
2023-05-19T02:37:48.234Z,102644.47
2023-05-19T02:40:16.288Z,102639.09
2023-05-19T02:42:44.283Z,102638.22
2023-05-19T02:45:12.941Z,102636.50
2023-05-19T02:47:41.607Z,102637.44
2023-05-19T02:50:10.377Z,102647.19
2023-05-19T02:52:39.699Z,102637.44
2023-05-19T02:55:08.285Z,102630.34
2023-05-19T02:57:36.480Z,102627.66
2023-05-19T03:00:09.019Z,102626.81
2023-05-19T03:02:37.043Z,102630.34
2023-05-19T03:05:05.637Z,102629.50
2023-05-19T03:07:33.746Z,102624.13
2023-05-19T03:10:04.062Z,102633.91
2023-05-19T03:12:32.520Z,102633.91
2023-05-19T03:15:00.644Z,102625.88
2023-05-19T03:17:33.666Z,102628.63
2023-05-19T03:20:02.564Z,102627.69
2023-05-19T03:22:33.057Z,102633.97
2023-05-19T03:25:01.152Z,102630.41
2023-05-19T03:27:30.498Z,102634.84
2023-05-19T03:29:58.487Z,102629.56
2023-05-19T03:32:26.657Z,102630.41
2023-05-19T03:34:54.695Z,102632.22
2023-05-19T03:37:22.749Z,102628.69
2023-05-19T03:39:50.748Z,102633.09
2023-05-19T03:42:18.783Z,102628.63
2023-05-19T03:44:48.407Z,102640.19
2023-05-19T03:47:16.436Z,102633.03
2023-05-19T03:49:44.623Z,102636.59
2023-05-19T03:52:12.690Z,102633.00
2023-05-19T03:54:42.685Z,102639.22
2023-05-19T03:57:11.220Z,102640.97
2023-05-19T03:59:41.361Z,102644.59
2023-05-19T04:02:10.887Z,102634.75
2023-05-19T04:04:39.033Z,102640.09
2023-05-19T04:07:07.438Z,102645.47
2023-05-19T04:09:35.604Z,102640.97
2023-05-19T04:12:04.015Z,102641.84
2023-05-19T04:14:32.080Z,102646.31
2023-05-19T04:17:00.312Z,102653.41
2023-05-19T04:19:29.914Z,102655.22
2023-05-19T04:21:58.120Z,102657.03
2023-05-19T04:24:26.236Z,102648.13
2023-05-19T04:26:54.462Z,102650.81
2023-05-19T04:29:24.019Z,102647.19
2023-05-19T04:31:52.760Z,102648.06
2023-05-19T04:34:20.728Z,102648.94
2023-05-19T04:36:53.566Z,102647.19
2023-05-19T04:39:21.774Z,102643.66
2023-05-19T04:41:49.744Z,102645.47
2023-05-19T04:44:18.572Z,102642.78
2023-05-19T04:46:46.709Z,102646.41
2023-05-19T04:49:19.212Z,102634.84
2023-05-19T04:51:50.395Z,102633.97
2023-05-19T04:54:20.230Z,102631.22
2023-05-19T04:56:48.191Z,102637.53
2023-05-19T04:59:16.153Z,102639.25
2023-05-19T05:01:47.151Z,102633.97
2023-05-19T05:04:15.129Z,102631.34
2023-05-19T05:06:47.860Z,102645.63
2023-05-19T05:09:16.057Z,102638.47
2023-05-19T05:11:46.201Z,102642.94
2023-05-19T05:14:14.675Z,102639.38
2023-05-19T05:16:43.731Z,102637.63
2023-05-19T05:19:12.431Z,102642.06
2023-05-19T05:21:41.501Z,102647.41
2023-05-19T05:24:10.969Z,102642.94
2023-05-19T05:26:39.521Z,102641.16
2023-05-19T05:29:10.339Z,102644.75
2023-05-19T05:31:38.324Z,102643.81
2023-05-19T05:34:06.392Z,102654.44
2023-05-19T05:36:35.059Z,102653.50
2023-05-19T05:39:03.926Z,102649.97
2023-05-19T05:41:35.254Z,102648.16
2023-05-19T05:44:03.690Z,102653.50
2023-05-19T05:46:33.524Z,102656.97
2023-05-19T05:49:02.002Z,102652.50
2023-05-19T05:51:32.864Z,102653.41
2023-05-19T05:54:01.886Z,102647.09
2023-05-19T05:56:30.288Z,102659.56
2023-05-19T05:58:58.677Z,102659.56
2023-05-19T06:01:26.686Z,102650.59
2023-05-19T06:03:59.050Z,102652.38
2023-05-19T06:06:27.005Z,102657.66
2023-05-19T06:08:54.958Z,102652.31
2023-05-19T06:11:23.030Z,102653.16
2023-05-19T06:13:51.151Z,102644.22
2023-05-19T06:16:19.247Z,102655.81
2023-05-19T06:18:47.303Z,102649.53
2023-05-19T06:21:19.170Z,102645.03
2023-05-19T06:23:47.177Z,102645.91
2023-05-19T06:26:15.422Z,102647.72
2023-05-19T06:28:43.377Z,102647.66
2023-05-19T06:31:11.426Z,102647.66
2023-05-19T06:33:39.413Z,102653.91
2023-05-19T06:36:08.514Z,102650.34
2023-05-19T06:38:37.846Z,102651.19
2023-05-19T06:41:06.156Z,102644.94
2023-05-19T06:43:34.155Z,102641.34
2023-05-19T06:46:02.214Z,102651.13
2023-05-19T06:48:33.064Z,102650.25
2023-05-19T06:51:01.056Z,102644.88
2023-05-19T06:53:29.119Z,102650.22
2023-05-19T06:55:59.851Z,102652.88
2023-05-19T06:58:28.471Z,102646.59
2023-05-19T07:00:56.893Z,102649.28
2023-05-19T07:03:25.023Z,102642.97
2023-05-19T07:05:53.191Z,102642.97
2023-05-19T07:08:21.187Z,102643.84
2023-05-19T07:10:52.167Z,102649.22
2023-05-19T07:13:21.529Z,102650.09
2023-05-19T07:15:49.893Z,102645.59
2023-05-19T07:18:17.950Z,102644.72
2023-05-19T07:20:46.184Z,102647.41
2023-05-19T07:23:16.051Z,102646.50
2023-05-19T07:25:45.338Z,102643.81
2023-05-19T07:28:13.322Z,102646.50
2023-05-19T07:30:42.814Z,102651.84
2023-05-19T07:33:10.897Z,102649.19
2023-05-19T07:35:38.998Z,102650.94
2023-05-19T07:38:07.520Z,102653.59
2023-05-19T07:40:35.570Z,102644.69
2023-05-19T07:43:03.619Z,102650.91
2023-05-19T07:45:31.648Z,102650.91
2023-05-19T07:48:01.166Z,102648.25
2023-05-19T07:50:29.469Z,102640.22
2023-05-19T07:52:57.497Z,102645.56
2023-05-19T07:55:26.381Z,102655.34
2023-05-19T07:57:54.313Z,102652.63
2023-05-19T08:00:22.669Z,102648.16
2023-05-19T08:02:50.828Z,102646.38
2023-05-19T08:05:23.509Z,102645.47
2023-05-19T08:07:51.481Z,102638.31
2023-05-19T08:10:19.581Z,102632.94
2023-05-19T08:12:48.763Z,102639.97
2023-05-19T08:15:16.900Z,102634.63
2023-05-19T08:17:49.986Z,102637.31
2023-05-19T08:20:18.068Z,102636.34
2023-05-19T08:22:47.608Z,102636.34
2023-05-19T08:25:15.627Z,102638.06
2023-05-19T08:27:43.550Z,102630.91
2023-05-19T08:30:12.553Z,102626.50
2023-05-19T08:32:40.592Z,102623.78
2023-05-19T08:35:09.718Z,102613.06
2023-05-19T08:37:38.735Z,102621.03
2023-05-19T08:40:12.187Z,102606.72
2023-05-19T08:42:40.274Z,102606.72
2023-05-19T08:45:09.302Z,102606.72
2023-05-19T08:47:37.558Z,102596.84
2023-05-19T08:50:09.977Z,102604.88
2023-05-19T08:52:57.839Z,102589.75
2023-05-19T08:55:37.805Z,102602.19
2023-05-19T08:58:09.689Z,102594.16
2023-05-19T09:00:38.185Z,102589.66
2023-05-19T09:03:18.219Z,102578.94
2023-05-19T09:05:53.850Z,102579.81
2023-05-19T09:08:22.654Z,102585.19
2023-05-19T09:10:52.043Z,102585.19
2023-05-19T09:13:19.983Z,102578.94
2023-05-19T09:15:51.476Z,102586.91
2023-05-19T09:18:19.508Z,102583.38
2023-05-19T09:20:47.747Z,102577.06
2023-05-19T09:23:19.269Z,102569.97
2023-05-19T09:25:52.771Z,102573.53
2023-05-19T09:28:28.038Z,102566.38
2023-05-19T09:31:07.789Z,102565.50
2023-05-19T09:33:37.213Z,102561.06
2023-05-19T09:36:08.228Z,102558.41
2023-05-19T09:38:37.445Z,102562.81
2023-05-19T09:41:09.990Z,102564.59
2023-05-19T09:43:38.100Z,102554.75
2023-05-19T09:46:07.246Z,102564.53
2023-05-19T09:48:36.369Z,102563.66
2023-05-19T09:51:05.395Z,102552.06
2023-05-19T09:53:33.991Z,102558.31
2023-05-19T09:56:04.181Z,102553.91
2023-05-19T09:58:36.480Z,102556.56
2023-05-19T10:01:05.936Z,102568.13
2023-05-19T10:03:35.157Z,102564.59
2023-05-19T10:06:05.609Z,102563.69
2023-05-19T10:08:34.849Z,102558.31
2023-05-19T10:11:03.158Z,102557.47
2023-05-19T10:13:34.782Z,102559.22
2023-05-19T10:16:03.320Z,102558.28
2023-05-19T10:18:34.508Z,102548.53
2023-05-19T10:21:03.905Z,102545.84
2023-05-19T10:23:32.120Z,102539.56
2023-05-19T10:26:06.698Z,102539.56
2023-05-19T10:28:38.108Z,102532.44
2023-05-19T10:31:11.054Z,102537.81
2023-05-19T10:33:50.866Z,102525.28
2023-05-19T10:36:35.473Z,102523.41
2023-05-19T10:39:08.161Z,102522.53
2023-05-19T10:41:43.953Z,102527.03
2023-05-19T10:44:29.259Z,102515.53
2023-05-19T10:46:57.476Z,102526.25
2023-05-19T10:49:25.804Z,102537.03
2023-05-19T10:51:57.143Z,102514.78
2023-05-19T10:54:43.327Z,102519.25
2023-05-19T10:57:16.709Z,102528.25
2023-05-19T10:59:46.420Z,102528.25
2023-05-19T11:02:39.238Z,102522.00
2023-05-19T11:05:11.063Z,102510.41
2023-05-19T11:07:42.696Z,102509.53
2023-05-19T11:10:11.239Z,102506.84
2023-05-19T11:12:43.825Z,102505.00
2023-05-19T11:15:15.392Z,102511.28
2023-05-19T11:17:48.446Z,102506.81
2023-05-19T11:20:24.664Z,102502.34
2023-05-19T11:23:09.649Z,102507.78
2023-05-19T11:25:45.513Z,102507.78
2023-05-19T11:28:14.369Z,102498.88
2023-05-19T11:30:45.974Z,102500.69
2023-05-19T11:33:14.906Z,102500.63
2023-05-19T11:35:44.764Z,102502.44
2023-05-19T11:38:15.443Z,102495.25
2023-05-19T11:40:44.590Z,102503.31
2023-05-19T11:43:12.638Z,102492.59
2023-05-19T11:45:46.134Z,102487.22
2023-05-19T11:48:15.986Z,102485.50
2023-05-19T11:50:45.044Z,102495.25
2023-05-19T11:53:16.554Z,102489.03
2023-05-19T11:55:46.546Z,102494.41
2023-05-19T11:58:15.200Z,102492.59
2023-05-19T12:00:47.872Z,102489.97
2023-05-19T12:03:17.348Z,102489.03
2023-05-19T12:05:49.667Z,102485.50
2023-05-19T12:08:18.745Z,102479.19
2023-05-19T12:10:50.851Z,102476.53
2023-05-19T12:13:18.990Z,102478.31
2023-05-19T12:15:48.436Z,102476.53
2023-05-19T12:18:16.450Z,102476.53
2023-05-19T12:20:44.608Z,102473.81
2023-05-19T12:23:13.553Z,102472.91
2023-05-19T12:25:41.715Z,102472.91
2023-05-19T12:28:09.746Z,102470.22
2023-05-19T12:30:38.127Z,102467.53
2023-05-19T12:33:09.732Z,102470.22
2023-05-19T12:35:38.772Z,102472.91
2023-05-19T12:38:07.780Z,102463.22
2023-05-19T12:40:36.777Z,102463.38
2023-05-19T12:43:05.587Z,102469.53
2023-05-19T12:45:36.169Z,102464.16
2023-05-19T12:48:06.074Z,102454.28
2023-05-19T12:50:35.947Z,102452.47
2023-05-19T12:53:04.134Z,102453.25
2023-05-19T12:55:39.590Z,102459.41
2023-05-19T12:58:09.081Z,102449.53
2023-05-19T13:00:42.244Z,102445.84
2023-05-19T13:03:16.672Z,102437.00
2023-05-19T13:05:48.102Z,102444.06
2023-05-19T13:08:18.231Z,102441.31
2023-05-19T13:10:47.452Z,102435.94
2023-05-19T13:13:15.710Z,102439.44
2023-05-19T13:15:45.433Z,102437.56
2023-05-19T13:18:15.508Z,102433.91
2023-05-19T13:20:44.638Z,102439.22
2023-05-19T13:23:15.202Z,102418.72
2023-05-19T13:25:43.762Z,102440.94
2023-05-19T13:28:12.225Z,102424.00
2023-05-19T13:30:45.032Z,102423.97
2023-05-19T13:33:13.314Z,102415.94
2023-05-19T13:35:41.348Z,102411.44
2023-05-19T13:38:10.917Z,102410.50
2023-05-19T13:40:41.064Z,102424.69
2023-05-19T13:43:09.960Z,102414.91
2023-05-19T13:45:38.668Z,102413.97
2023-05-19T13:48:11.010Z,102413.06
2023-05-19T13:50:39.169Z,102418.44
2023-05-19T13:53:07.232Z,102405.81
2023-05-19T13:55:35.273Z,102402.22
2023-05-19T13:58:04.682Z,102401.28
2023-05-19T14:00:33.248Z,102387.91
2023-05-19T14:03:01.767Z,102389.56
2023-05-19T14:05:31.195Z,102392.25
2023-05-19T14:08:01.092Z,102389.53
2023-05-19T14:10:29.234Z,102385.91
2023-05-19T14:15:37.837Z,102386.72
2023-05-19T14:18:07.037Z,102387.56
2023-05-19T14:20:38.171Z,102397.31
2023-05-19T14:23:06.369Z,102389.25
2023-05-19T14:25:34.423Z,102381.22
2023-05-19T14:28:02.755Z,102372.22
2023-05-19T14:30:35.291Z,102383.81
2023-05-19T14:33:03.735Z,102382.94
2023-05-19T14:35:31.781Z,102382.00
2023-05-19T14:37:59.751Z,102370.41
2023-05-19T14:40:27.811Z,102373.09
2023-05-19T14:42:55.838Z,102394.53
2023-05-19T14:45:23.801Z,102380.19
2023-05-19T14:47:53.189Z,102380.19
2023-05-19T14:50:21.476Z,102377.47
2023-05-19T14:52:49.433Z,102372.97
2023-05-19T14:55:17.638Z,102372.03
2023-05-19T14:57:45.681Z,102363.94
2023-05-19T15:00:14.831Z,102369.31
2023-05-19T15:02:42.948Z,102363.09
2023-05-19T15:05:12.718Z,102364.81
2023-05-19T15:07:40.794Z,102364.81
2023-05-19T15:10:12.176Z,102370.97
2023-05-19T15:12:40.100Z,102360.25
2023-05-19T15:15:09.389Z,102358.41
2023-05-19T15:17:37.468Z,102352.97
2023-05-19T15:20:06.371Z,102356.50
2023-05-19T15:22:36.451Z,102357.34
2023-05-19T15:25:06.886Z,102350.91
2023-05-19T15:27:36.311Z,102357.03
2023-05-19T15:30:04.540Z,102356.94
2023-05-19T15:32:32.545Z,102347.97
2023-05-19T15:35:00.483Z,102346.94
2023-05-19T15:37:28.426Z,102349.53
2023-05-19T15:39:57.748Z,102350.41
2023-05-19T15:42:26.080Z,102351.25
2023-05-19T15:44:54.024Z,102342.34
2023-05-19T15:47:22.028Z,102344.16
2023-05-19T15:49:50.047Z,102344.16
2023-05-19T15:52:17.993Z,102341.47
2023-05-19T15:54:46.668Z,102333.44
2023-05-19T15:57:16.003Z,102335.25
2023-05-19T15:59:43.940Z,102329.03
2023-05-19T16:02:12.514Z,102328.94
2023-05-19T16:04:40.482Z,102328.06
2023-05-19T16:07:08.472Z,102333.38
2023-05-19T16:09:36.454Z,102331.56
2023-05-19T16:12:04.713Z,102330.69
2023-05-19T16:14:36.649Z,102328.00
2023-05-19T16:17:04.759Z,102316.41
2023-05-19T16:19:32.804Z,102316.41
2023-05-19T16:22:03.553Z,102322.63
2023-05-19T16:24:31.518Z,102323.59
2023-05-19T16:26:59.506Z,102322.63
2023-05-19T16:29:27.495Z,102312.78
2023-05-19T16:31:56.940Z,102317.22
2023-05-19T16:34:25.068Z,102317.22
2023-05-19T16:36:53.001Z,102317.28
2023-05-19T16:39:20.970Z,102317.34
2023-05-19T16:41:48.929Z,102320.91
2023-05-19T16:44:18.331Z,102314.59
2023-05-19T16:46:46.332Z,102321.72
2023-05-19T16:49:18.127Z,102318.09
2023-05-19T16:51:47.526Z,102324.31
2023-05-19T16:54:16.864Z,102321.72
2023-05-19T16:56:44.836Z,102324.41
2023-05-19T16:59:12.879Z,102312.78
2023-05-19T17:01:40.974Z,102313.69
2023-05-19T17:04:09.217Z,102313.72
2023-05-19T17:06:38.699Z,102305.81
2023-05-19T17:09:06.622Z,102322.59
2023-05-19T17:11:34.755Z,102322.59
2023-05-19T17:14:07.580Z,102326.16
2023-05-19T17:16:38.647Z,102325.31
2023-05-19T17:19:06.749Z,102319.91
2023-05-19T17:21:34.785Z,102321.72
2023-05-19T17:24:04.142Z,102319.03
2023-05-19T17:26:32.125Z,102321.72
2023-05-19T17:29:00.138Z,102321.72
2023-05-19T17:31:28.229Z,102322.59
2023-05-19T17:33:59.158Z,102322.59
2023-05-19T17:36:27.247Z,102321.72
2023-05-19T17:38:55.383Z,102323.47
2023-05-19T17:41:24.799Z,102320.78
2023-05-19T17:43:52.852Z,102323.47
2023-05-19T17:46:20.920Z,102323.47
2023-05-19T17:48:48.917Z,102315.47
2023-05-19T17:51:17.002Z,102315.47
2023-05-19T17:53:45.629Z,102321.72
2023-05-19T17:56:14.183Z,102320.78
2023-05-19T17:58:46.632Z,102321.56
2023-05-19T18:01:15.010Z,102321.56
2023-05-19T18:03:49.677Z,102323.34
2023-05-19T18:06:18.295Z,102320.66
2023-05-19T18:08:47.185Z,102333.13
2023-05-19T18:11:16.145Z,102330.34
2023-05-19T18:13:45.613Z,102324.13
2023-05-19T18:16:13.958Z,102328.53
2023-05-19T18:18:43.753Z,102323.19
2023-05-19T18:21:17.700Z,102330.31
2023-05-19T18:23:45.996Z,102334.81
2023-05-19T18:26:14.392Z,102331.19
2023-05-19T18:28:43.453Z,102339.16
2023-05-19T18:31:19.463Z,102339.16
2023-05-19T18:33:48.096Z,102335.59
2023-05-19T18:36:16.664Z,102338.28
2023-05-19T18:38:44.770Z,102335.53
2023-05-19T18:41:12.837Z,102344.47
2023-05-19T18:43:40.830Z,102337.28
2023-05-19T18:46:08.922Z,102337.28
2023-05-19T18:48:38.287Z,102340.84
2023-05-19T18:51:07.297Z,102339.88
2023-05-19T18:53:35.695Z,102343.53
2023-05-19T18:56:04.334Z,102347.94
2023-05-19T18:58:32.669Z,102356.84
2023-05-19T19:01:00.749Z,102344.31
2023-05-19T19:03:29.074Z,102347.88
2023-05-19T19:05:59.679Z,102352.22
2023-05-19T19:08:27.807Z,102352.22
2023-05-19T19:11:00.219Z,102351.34
2023-05-19T19:13:28.429Z,102357.59
2023-05-19T19:15:56.473Z,102366.50
2023-05-19T19:18:26.076Z,102359.28
2023-05-19T19:20:59.638Z,102375.41
2023-05-19T19:23:27.652Z,102375.50
2023-05-19T19:25:56.486Z,102381.72
2023-05-19T19:28:24.699Z,102379.06
2023-05-19T19:30:52.683Z,102378.09
2023-05-19T19:33:20.830Z,102381.69
2023-05-19T19:35:51.969Z,102379.00
2023-05-19T19:38:21.440Z,102381.59
2023-05-19T19:40:52.505Z,102382.56
2023-05-19T19:43:20.717Z,102394.16
2023-05-19T19:45:48.721Z,102396.75
2023-05-19T19:48:16.857Z,102399.44
2023-05-19T19:50:44.890Z,102394.91
2023-05-19T19:53:15.564Z,102399.38
2023-05-19T19:55:44.999Z,102402.06
2023-05-19T19:58:13.137Z,102394.94
2023-05-19T20:00:41.146Z,102411.84
2023-05-19T20:03:09.129Z,102403.81
2023-05-19T20:05:39.458Z,102420.69
2023-05-19T20:08:07.770Z,102407.38
2023-05-19T20:10:36.009Z,102413.59
2023-05-19T20:13:05.536Z,102409.09
2023-05-19T20:15:33.533Z,102409.09
2023-05-19T20:18:01.645Z,102415.34
2023-05-19T20:20:29.834Z,102409.97
2023-05-19T20:22:57.759Z,102409.97
2023-05-19T20:25:28.513Z,102415.34
2023-05-19T20:27:56.501Z,102411.72
2023-05-19T20:30:26.147Z,102414.41
2023-05-19T20:32:54.191Z,102418.84
2023-05-19T20:35:24.783Z,102414.34
2023-05-19T20:37:55.690Z,102413.47
2023-05-19T20:40:23.654Z,102412.59
2023-05-19T20:42:51.920Z,102406.28
2023-05-19T20:45:19.972Z,102415.22
2023-05-19T20:47:49.368Z,102415.22
2023-05-19T20:50:17.475Z,102415.22
2023-05-19T20:52:47.213Z,102414.34
2023-05-19T20:55:15.194Z,102420.56
2023-05-19T20:57:45.648Z,102420.56
2023-05-19T21:00:14.357Z,102420.56
2023-05-19T21:02:42.303Z,102416.16
2023-05-19T21:05:11.948Z,102427.75
2023-05-19T21:07:40.128Z,102424.19
2023-05-19T21:10:09.508Z,102422.47
2023-05-19T21:12:37.499Z,102434.06
2023-05-19T21:15:06.078Z,102424.28
2023-05-19T21:17:34.173Z,102432.31
2023-05-19T21:20:02.272Z,102429.69
2023-05-19T21:22:31.749Z,102435.06
2023-05-19T21:24:59.791Z,102436.88
2023-05-19T21:27:27.734Z,102446.72
2023-05-19T21:29:55.753Z,102447.66
2023-05-19T21:32:23.800Z,102443.22
2023-05-19T21:34:51.743Z,102448.53
2023-05-19T21:37:21.152Z,102443.22
2023-05-19T21:39:50.562Z,102448.59
2023-05-19T21:42:18.659Z,102447.72
2023-05-19T21:44:46.671Z,102449.53
2023-05-19T21:47:14.666Z,102448.66
2023-05-19T21:49:42.846Z,102446.06
2023-05-19T21:52:11.226Z,102453.16
2023-05-19T21:54:42.126Z,102448.75
2023-05-19T21:57:12.650Z,102452.34
2023-05-19T21:59:40.868Z,102455.88
2023-05-19T22:02:08.939Z,102451.47
2023-05-19T22:04:37.112Z,102450.59
2023-05-19T22:07:06.516Z,102448.78
2023-05-19T22:09:34.457Z,102441.69
2023-05-19T22:12:02.633Z,102447.91
2023-05-19T22:14:32.011Z,102446.19
2023-05-19T22:16:59.994Z,102445.31
2023-05-19T22:19:28.010Z,102444.44
2023-05-19T22:22:09.768Z,102445.34
2023-05-19T22:24:41.033Z,102444.47
2023-05-19T22:27:09.425Z,102445.44
2023-05-19T22:29:39.436Z,102453.41
2023-05-19T22:32:11.754Z,102457.03
2023-05-19T22:34:39.865Z,102449.91
2023-05-19T22:37:07.914Z,102449.91
2023-05-19T22:39:35.834Z,102448.16
2023-05-19T22:42:03.937Z,102448.16
2023-05-19T22:44:31.908Z,102449.97
2023-05-19T22:47:01.375Z,102449.97
2023-05-19T22:49:31.914Z,102454.47
2023-05-19T22:52:00.036Z,102451.78
2023-05-19T22:54:28.034Z,102445.53
2023-05-19T22:56:55.988Z,102441.13
2023-05-19T22:59:23.964Z,102444.69
2023-05-19T23:01:52.168Z,102450.03
2023-05-19T23:04:21.812Z,102442.94
2023-05-19T23:06:50.321Z,102441.13
2023-05-19T23:09:18.371Z,102437.56
2023-05-19T23:11:46.587Z,102438.50
2023-05-19T23:14:18.514Z,102432.25
2023-05-19T23:16:46.693Z,102435.81
2023-05-19T23:19:14.853Z,102438.50
2023-05-19T23:21:45.928Z,102429.56
2023-05-19T23:24:13.933Z,102437.63
2023-05-19T23:26:43.872Z,102431.38
2023-05-19T23:29:12.914Z,102444.78
2023-05-19T23:31:41.246Z,102442.19
2023-05-19T23:34:09.499Z,102443.06
2023-05-19T23:36:37.580Z,102438.63
2023-05-19T23:39:06.965Z,102435.97
2023-05-19T23:41:34.991Z,102435.97
2023-05-19T23:44:02.990Z,102425.22
2023-05-19T23:46:31.723Z,102437.81
2023-05-19T23:48:59.800Z,102436.88
2023-05-19T23:51:27.868Z,102444.91
2023-05-19T23:53:55.810Z,102444.91
2023-05-19T23:56:25.138Z,102446.72
2023-05-19T23:58:53.122Z,102447.66
